Time;durP1;ratioP1;P1;durP2;ratioP2;P2;SDS_P1;SDS_P2;PMS_P1;PMS_P2;Temp;Humidity;BMP_temperature;BMP_pressure;BME280_temperature;BME280_humidity;BME280_pressure;Samples;Min_cycle;Max_cycle;Signal;HPM_P1;HPM_P2
2022/07/30 00:01:44;;;;;;;1.77;1.50;;;18.30;86.00;;;;;;5057064;28;20464;-81
2022/07/30 00:04:11;;;;;;;1.52;1.42;;;18.30;86.50;;;;;;5051364;28;20443;-81
2022/07/30 00:06:38;;;;;;;2.60;1.90;;;18.40;86.70;;;;;;5060114;28;20765;-82
2022/07/30 00:09:05;;;;;;;3.72;1.60;;;18.30;86.40;;;;;;5046626;28;20405;-83
2022/07/30 00:11:33;;;;;;;1.70;1.40;;;18.20;86.60;;;;;;5049716;28;20440;-82
2022/07/30 00:14:00;;;;;;;2.13;1.50;;;18.20;86.40;;;;;;5051247;28;20835;-80
2022/07/30 00:16:27;;;;;;;2.20;1.60;;;18.20;86.10;;;;;;5052318;28;20424;-82
2022/07/30 00:18:54;;;;;;;1.55;1.40;;;18.10;85.90;;;;;;5042815;28;20462;-82
2022/07/30 00:21:22;;;;;;;2.63;1.47;;;18.10;86.00;;;;;;5046618;28;20408;-82
2022/07/30 00:24:05;;;;;;;1.35;1.25;;;18.00;85.80;;;;;;5063934;28;20508;-81
2022/07/30 00:26:32;;;;;;;1.33;1.20;;;18.00;85.70;;;;;;5103695;28;20834;-82
2022/07/30 00:28:59;;;;;;;1.80;1.20;;;18.00;85.60;;;;;;5070482;28;20435;-82
2022/07/30 00:31:26;;;;;;;1.40;1.27;;;18.00;85.60;;;;;;5104594;27;20468;-82
2022/07/30 00:33:53;;;;;;;2.22;1.17;;;18.00;85.70;;;;;;5060432;28;20436;-83
2022/07/30 00:36:20;;;;;;;2.20;1.10;;;18.00;85.70;;;;;;5102703;28;20468;-82
2022/07/30 00:38:47;;;;;;;1.85;1.55;;;18.00;85.80;;;;;;5065560;28;20441;-82
2022/07/30 00:41:14;;;;;;;2.97;1.90;;;18.00;85.70;;;;;;5071663;28;20442;-81
2022/07/30 00:43:42;;;;;;;1.38;1.10;;;18.00;85.90;;;;;;5069596;28;20411;-83
2022/07/30 00:46:09;;;;;;;1.50;1.33;;;17.90;86.00;;;;;;5069842;28;20398;-83
2022/07/30 00:48:36;;;;;;;1.65;1.38;;;17.90;86.20;;;;;;5068336;28;20417;-83
2022/07/30 00:51:03;;;;;;;1.40;1.30;;;17.90;86.20;;;;;;5069720;28;20756;-82
2022/07/30 00:53:30;;;;;;;2.03;1.30;;;17.90;86.30;;;;;;5071097;28;20399;-82
2022/07/30 00:55:57;;;;;;;1.42;1.33;;;17.90;86.00;;;;;;5071032;28;20894;-80
2022/07/30 00:58:24;;;;;;;2.05;1.40;;;17.90;86.10;;;;;;5074221;28;20411;-81
2022/07/30 01:00:51;;;;;;;1.92;1.45;;;17.90;86.10;;;;;;5065988;28;20441;-83
2022/07/30 01:03:18;;;;;;;1.63;1.20;;;17.90;86.30;;;;;;5067808;28;20494;-81
2022/07/30 01:05:45;;;;;;;1.90;1.30;;;17.90;86.70;;;;;;5069323;28;20472;-81
2022/07/30 01:08:12;;;;;;;3.92;1.50;;;17.90;86.80;;;;;;5102049;28;20960;-82
2022/07/30 01:10:39;;;;;;;1.90;1.30;;;17.90;86.50;;;;;;5074779;28;20409;-80
2022/07/30 01:13:06;;;;;;;2.50;1.48;;;17.70;86.30;;;;;;5102899;28;20411;-81
2022/07/30 01:15:34;;;;;;;2.55;1.38;;;17.60;86.60;;;;;;5070500;28;20407;-82
2022/07/30 01:18:05;;;;;;;1.45;1.20;;;17.50;86.50;;;;;;5068930;28;20433;-82
2022/07/30 01:20:56;;;;;;;2.22;1.73;;;17.50;86.60;;;;;;5070837;28;20460;-82
2022/07/30 01:23:36;;;;;;;1.88;1.42;;;17.40;86.50;;;;;;5070512;28;20399;-83
2022/07/30 01:26:09;;;;;;;1.42;1.17;;;17.40;86.60;;;;;;5066360;28;20415;-81
2022/07/30 01:28:39;;;;;;;2.03;1.40;;;17.40;86.70;;;;;;5066745;28;20490;-83
2022/07/30 01:31:08;;;;;;;2.20;1.70;;;17.30;86.70;;;;;;5067668;28;20442;-82
2022/07/30 01:33:39;;;;;;;3.05;1.40;;;17.30;87.10;;;;;;5070656;28;20493;-83
2022/07/30 01:36:10;;;;;;;2.03;1.30;;;17.30;87.40;;;;;;5061878;28;20414;-82
2022/07/30 01:38:39;;;;;;;2.38;1.50;;;17.30;87.60;;;;;;5069075;28;20439;-82
2022/07/30 01:41:07;;;;;;;3.53;1.45;;;17.20;87.70;;;;;;5105064;28;20419;-81
2022/07/30 01:43:35;;;;;;;2.00;1.70;;;17.20;87.80;;;;;;5069790;28;20414;-83
2022/07/30 01:46:03;;;;;;;1.40;1.25;;;17.20;87.60;;;;;;5063862;28;20468;-82
2022/07/30 01:48:33;;;;;;;1.93;1.27;;;17.30;87.50;;;;;;5071380;28;20415;-81
2022/07/30 01:51:06;;;;;;;1.92;1.58;;;17.30;87.40;;;;;;5069205;28;20425;-81
2022/07/30 01:53:37;;;;;;;2.77;1.40;;;17.30;87.40;;;;;;5067545;28;20403;-83
2022/07/30 01:56:06;;;;;;;1.43;1.33;;;17.30;87.50;;;;;;5075146;28;20407;-81
2022/07/30 01:58:38;;;;;;;2.50;1.30;;;17.30;87.50;;;;;;5076835;28;20418;-81
2022/07/30 02:01:06;;;;;;;1.90;1.80;;;17.40;87.60;;;;;;5074749;28;20401;-82
2022/07/30 02:03:34;;;;;;;2.05;1.50;;;17.30;87.50;;;;;;5073858;28;20429;-82
2022/07/30 02:06:14;;;;;;;1.55;1.45;;;17.30;87.80;;;;;;5074380;28;20756;-81
2022/07/30 02:08:56;;;;;;;2.33;1.30;;;17.30;87.60;;;;;;5075572;28;20468;-82
2022/07/30 02:14:25;;;;;;;1.58;1.38;;;17.10;87.60;;;;;;5074723;28;20456;-83
2022/07/30 02:17:00;;;;;;;2.90;1.60;;;17.00;87.70;;;;;;5062996;28;20416;-83
2022/07/30 02:19:33;;;;;;;2.63;1.70;;;17.00;87.60;;;;;;5057528;28;20410;-81
2022/07/30 02:22:09;;;;;;;1.60;1.50;;;17.00;87.80;;;;;;5067747;28;20429;-82
2022/07/30 02:24:40;;;;;;;2.35;1.60;;;17.00;88.20;;;;;;5073342;28;20968;-82
2022/07/30 02:27:12;;;;;;;4.45;1.98;;;17.00;88.90;;;;;;5072281;28;20469;-83
2022/07/30 02:29:41;;;;;;;2.67;1.85;;;17.00;89.10;;;;;;5073857;28;20398;-82
2022/07/30 02:32:11;;;;;;;2.30;1.73;;;17.00;89.10;;;;;;5070918;28;20982;-82
2022/07/30 02:34:40;;;;;;;4.43;2.05;;;17.00;88.90;;;;;;5105664;28;20399;-80
2022/07/30 02:37:10;;;;;;;2.38;1.40;;;17.00;88.90;;;;;;5073307;28;20778;-82
2022/07/30 02:39:40;;;;;;;2.92;1.42;;;17.00;88.70;;;;;;5072989;28;20417;-82
2022/07/30 02:42:09;;;;;;;2.05;1.40;;;17.00;88.40;;;;;;5074211;28;20410;-80
2022/07/30 02:44:39;;;;;;;2.15;1.17;;;17.00;88.10;;;;;;5066301;28;20418;-83
2022/07/30 02:47:07;;;;;;;1.55;1.42;;;17.00;87.60;;;;;;5068115;28;20460;-81
2022/07/30 02:49:36;;;;;;;2.35;1.20;;;17.00;87.60;;;;;;5071810;28;20984;-81
2022/07/30 02:52:07;;;;;;;2.25;1.50;;;16.90;87.50;;;;;;5071975;28;20819;-83
2022/07/30 02:54:38;;;;;;;1.95;1.35;;;16.90;87.40;;;;;;5071969;28;20860;-80
2022/07/30 02:57:06;;;;;;;2.25;1.60;;;16.90;87.50;;;;;;5072641;28;20430;-82
2022/07/30 02:59:36;;;;;;;1.88;1.17;;;16.90;87.50;;;;;;5065788;28;20456;-80
2022/07/30 03:02:05;;;;;;;2.40;1.50;;;16.80;87.50;;;;;;5066721;28;20408;-81
2022/07/30 03:04:34;;;;;;;2.35;1.70;;;16.80;87.70;;;;;;5071074;28;20473;-82
2022/07/30 03:07:03;;;;;;;1.50;1.40;;;16.80;88.10;;;;;;5077409;28;20778;-82
2022/07/30 03:09:37;;;;;;;1.60;1.30;;;16.70;88.30;;;;;;5072828;28;20432;-81
2022/07/30 03:12:18;;;;;;;2.37;1.80;;;16.70;88.20;;;;;;5076639;28;20435;-81
2022/07/30 03:14:45;;;;;;;1.70;1.60;;;16.70;88.30;;;;;;5073035;28;20411;-80
2022/07/30 03:17:16;;;;;;;2.20;1.65;;;16.70;88.40;;;;;;5072274;28;20438;-83
2022/07/30 03:19:44;;;;;;;1.83;1.63;;;16.70;88.70;;;;;;5072106;28;20399;-81
2022/07/30 03:22:13;;;;;;;3.20;1.80;;;16.70;88.90;;;;;;5074014;28;20463;-80
2022/07/30 03:24:43;;;;;;;3.00;1.75;;;16.70;88.80;;;;;;5072528;28;20434;-82
2022/07/30 03:27:10;;;;;;;5.32;1.80;;;16.50;89.00;;;;;;5070932;28;20424;-83
2022/07/30 03:29:38;;;;;;;1.60;1.43;;;16.40;89.10;;;;;;5069976;28;20890;-83
2022/07/30 03:32:06;;;;;;;1.90;1.67;;;16.40;89.30;;;;;;5071084;28;20407;-83
2022/07/30 03:34:33;;;;;;;2.42;1.67;;;16.40;89.30;;;;;;5090481;28;20808;-82
2022/07/30 03:37:04;;;;;;;1.73;1.52;;;16.40;89.60;;;;;;5065049;28;20416;-83
2022/07/30 03:39:36;;;;;;;2.75;2.42;;;16.40;89.80;;;;;;5071316;28;20407;-83
2022/07/30 03:42:06;;;;;;;2.88;1.90;;;16.40;90.10;;;;;;5067298;28;20412;-83
2022/07/30 03:44:36;;;;;;;2.90;1.90;;;16.40;90.30;;;;;;5069696;28;20411;-83
2022/07/30 03:47:05;;;;;;;2.20;1.60;;;16.40;90.60;;;;;;5071772;28;20467;-81
2022/07/30 03:49:33;;;;;;;2.63;1.55;;;16.40;90.60;;;;;;5083289;28;20979;-81
2022/07/30 03:52:01;;;;;;;2.00;1.80;;;16.40;90.60;;;;;;5072102;28;20472;-82
2022/07/30 03:54:32;;;;;;;1.80;1.20;;;16.40;90.60;;;;;;5066193;28;20817;-83
2022/07/30 03:57:03;;;;;;;2.67;1.80;;;16.40;90.60;;;;;;5070334;28;20438;-82
2022/07/30 03:59:31;;;;;;;2.03;1.83;;;16.30;90.30;;;;;;5059090;28;20436;-81
2022/07/30 04:02:01;;;;;;;3.05;1.88;;;16.30;90.20;;;;;;5064810;28;20407;-83
2022/07/30 04:04:33;;;;;;;3.92;1.70;;;16.20;90.30;;;;;;5070110;28;20421;-83
2022/07/30 04:06:59;;;;;;;2.15;1.95;;;16.20;90.30;;;;;;5070785;28;20465;-81
2022/07/30 04:09:27;;;;;;;2.00;1.52;;;16.20;90.20;;;;;;5070177;28;20413;-82
2022/07/30 04:11:54;;;;;;;1.90;1.80;;;16.20;90.10;;;;;;5068153;28;20759;-82
2022/07/30 04:14:21;;;;;;;2.00;1.80;;;16.20;90.10;;;;;;5070505;28;20460;-82
2022/07/30 04:16:58;;;;;;;1.90;1.38;;;16.20;90.20;;;;;;5070187;28;20756;-80
2022/07/30 04:19:37;;;;;;;2.40;2.00;;;16.30;90.30;;;;;;5070279;28;20478;-80
2022/07/30 04:22:06;;;;;;;1.50;1.40;;;16.30;90.30;;;;;;5065682;28;20470;-81
2022/07/30 04:24:34;;;;;;;2.43;1.90;;;16.30;90.40;;;;;;5056975;28;20785;-82
2022/07/30 04:27:02;;;;;;;2.10;1.90;;;16.30;90.40;;;;;;5068006;28;20774;-83
2022/07/30 04:29:30;;;;;;;1.90;1.70;;;16.30;90.30;;;;;;5065686;28;20418;-80
2022/07/30 04:31:57;;;;;;;2.30;1.63;;;16.20;90.40;;;;;;5070955;28;20486;-80
2022/07/30 04:34:24;;;;;;;2.30;1.95;;;16.30;90.50;;;;;;5069746;28;20490;-80
2022/07/30 04:36:51;;;;;;;1.97;1.70;;;16.30;90.60;;;;;;5071728;28;20774;-82
2022/07/30 04:39:17;;;;;;;2.67;1.77;;;16.40;90.90;;;;;;5070230;28;20472;-82
2022/07/30 04:41:44;;;;;;;2.92;2.47;;;16.40;91.10;;;;;;5064106;28;20442;-83
2022/07/30 04:44:15;;;;;;;2.30;2.00;;;16.40;91.20;;;;;;5069697;28;20439;-82
2022/07/30 04:46:42;;;;;;;2.27;2.07;;;16.50;91.40;;;;;;5069699;28;20401;-83
2022/07/30 04:49:11;;;;;;;2.97;2.70;;;16.50;91.30;;;;;;5064547;28;20484;-82
2022/07/30 04:51:39;;;;;;;2.72;1.90;;;16.50;90.90;;;;;;5069757;28;20410;-82
2022/07/30 04:54:09;;;;;;;2.77;2.20;;;16.40;91.10;;;;;;5064151;28;20468;-83
2022/07/30 04:56:46;;;;;;;3.45;2.42;;;16.50;91.30;;;;;;5069668;28;20418;-82
2022/07/30 04:59:24;;;;;;;2.90;2.70;;;16.50;91.30;;;;;;5070621;28;20418;-82
2022/07/30 05:01:54;;;;;;;3.78;3.28;;;16.50;91.30;;;;;;5069381;28;20481;-82
2022/07/30 05:04:23;;;;;;;3.03;2.80;;;16.60;91.20;;;;;;5068919;28;20823;-80
2022/07/30 05:06:51;;;;;;;3.92;3.20;;;16.60;91.30;;;;;;5072618;28;20463;-83
2022/07/30 05:09:18;;;;;;;2.55;2.35;;;16.70;91.40;;;;;;5065704;28;20411;-81
2022/07/30 05:11:52;;;;;;;2.53;2.28;;;16.70;91.40;;;;;;5071623;28;20406;-83
2022/07/30 05:14:21;;;;;;;3.67;2.60;;;16.80;91.60;;;;;;5075348;28;20488;-80
2022/07/30 05:16:49;;;;;;;3.80;2.80;;;16.90;91.60;;;;;;5071414;28;20383;-82
2022/07/30 05:19:17;;;;;;;4.50;3.35;;;16.90;91.50;;;;;;5071257;28;20468;-81
2022/07/30 05:21:45;;;;;;;3.10;2.80;;;17.00;91.90;;;;;;5070748;28;20403;-83
2022/07/30 05:24:12;;;;;;;4.28;3.60;;;17.10;92.00;;;;;;5071152;28;20886;-82
2022/07/30 05:26:39;;;;;;;3.00;2.42;;;17.20;92.10;;;;;;5069010;28;20448;-83
2022/07/30 05:29:06;;;;;;;2.80;2.33;;;17.30;92.20;;;;;;5068763;28;20395;-83
2022/07/30 05:31:34;;;;;;;2.40;2.20;;;17.40;92.20;;;;;;5069011;28;20405;-83
2022/07/30 05:34:03;;;;;;;3.50;2.97;;;17.40;92.10;;;;;;5068725;28;20425;-84
2022/07/30 05:36:31;;;;;;;3.70;2.38;;;17.50;92.00;;;;;;5065926;28;20405;-81
2022/07/30 05:38:57;;;;;;;2.53;2.33;;;17.60;92.00;;;;;;5069676;28;20394;-83
2022/07/30 05:41:26;;;;;;;2.58;2.38;;;17.60;91.90;;;;;;5069395;28;20406;-81
2022/07/30 05:43:59;;;;;;;3.00;2.63;;;17.70;91.80;;;;;;5070676;28;20445;-84
2022/07/30 05:46:26;;;;;;;2.83;2.58;;;17.80;91.70;;;;;;5070855;28;20417;-82
2022/07/30 05:48:53;;;;;;;3.25;2.40;;;17.80;91.60;;;;;;5068261;28;20450;-83
2022/07/30 05:51:21;;;;;;;2.35;2.15;;;17.90;91.60;;;;;;5071908;28;20417;-83
2022/07/30 05:53:48;;;;;;;3.13;2.83;;;18.00;91.50;;;;;;5103061;28;20487;-82
2022/07/30 05:56:15;;;;;;;2.08;1.88;;;18.10;91.50;;;;;;5074004;28;20894;-83
2022/07/30 05:58:42;;;;;;;2.97;2.53;;;18.20;91.50;;;;;;5063034;28;20453;-83
2022/07/30 06:01:09;;;;;;;4.70;2.92;;;18.30;91.50;;;;;;5069717;28;20434;-83
2022/07/30 06:03:37;;;;;;;2.65;2.17;;;18.40;91.40;;;;;;5068286;28;20825;-83
2022/07/30 06:06:05;;;;;;;2.55;2.35;;;18.50;91.40;;;;;;5070946;28;20406;-83
2022/07/30 06:08:32;;;;;;;2.58;2.30;;;18.60;91.10;;;;;;5069837;28;20907;-81
2022/07/30 06:10:59;;;;;;;3.45;2.20;;;18.80;90.90;;;;;;5068486;28;20406;-83
2022/07/30 06:13:26;;;;;;;1.60;1.50;;;19.00;90.40;;;;;;5068540;28;20412;-82
2022/07/30 06:15:53;;;;;;;2.78;2.05;;;19.10;90.20;;;;;;5068971;28;20818;-83
2022/07/30 06:18:20;;;;;;;3.05;1.83;;;19.20;90.20;;;;;;5068654;28;20421;-83
2022/07/30 06:20:50;;;;;;;2.00;1.90;;;19.30;90.10;;;;;;5071064;28;20391;-83
2022/07/30 06:23:18;;;;;;;1.73;1.63;;;19.30;89.80;;;;;;5068716;28;20474;-83
2022/07/30 06:25:46;;;;;;;2.30;1.77;;;19.50;89.40;;;;;;5072409;28;20407;-83
2022/07/30 06:28:14;;;;;;;3.15;2.20;;;19.50;88.70;;;;;;5071078;28;20423;-83
2022/07/30 06:31:01;;;;;;;2.45;2.25;;;19.60;88.30;;;;;;5071226;28;20448;-84
2022/07/30 06:33:28;;;;;;;2.58;2.10;;;19.80;88.40;;;;;;5072185;28;20490;-83
2022/07/30 06:35:55;;;;;;;2.13;1.65;;;19.90;88.10;;;;;;5070463;28;20407;-84
2022/07/30 06:38:22;;;;;;;1.88;1.77;;;20.00;87.40;;;;;;5068985;28;20460;-83
2022/07/30 06:40:49;;;;;;;2.55;1.85;;;20.10;86.50;;;;;;5065996;28;20884;-83
2022/07/30 06:43:17;;;;;;;2.60;1.30;;;20.20;84.10;;;;;;5075926;28;20472;-81
2022/07/30 06:45:44;;;;;;;1.20;1.10;;;20.40;82.90;;;;;;5072560;28;20417;-83
2022/07/30 06:48:11;;;;;;;1.33;1.20;;;20.60;81.80;;;;;;5072412;28;20456;-83
2022/07/30 06:50:40;;;;;;;1.35;1.17;;;20.70;80.90;;;;;;5067855;28;20434;-81
2022/07/30 06:53:07;;;;;;;0.80;0.80;;;20.80;81.00;;;;;;5073667;28;20399;-84
2022/07/30 06:55:34;;;;;;;1.30;1.10;;;20.90;81.30;;;;;;5079988;28;20966;-83
2022/07/30 06:58:01;;;;;;;1.55;0.90;;;21.00;81.50;;;;;;5075932;28;20423;-83
2022/07/30 07:00:28;;;;;;;2.37;1.00;;;21.10;81.10;;;;;;5077737;28;20909;-83
2022/07/30 07:02:55;;;;;;;3.30;1.50;;;21.20;79.10;;;;;;5079364;28;20387;-80
2022/07/30 07:05:22;;;;;;;1.15;0.80;;;21.40;77.20;;;;;;5084001;28;20456;-82
2022/07/30 07:07:49;;;;;;;2.60;0.70;;;21.50;76.50;;;;;;5083188;28;20410;-81
2022/07/30 07:10:26;;;;;;;1.73;0.70;;;21.60;76.20;;;;;;5083264;28;20394;-81
2022/07/30 07:12:53;;;;;;;2.28;0.80;;;21.70;75.30;;;;;;5079004;28;20418;-80
2022/07/30 07:15:21;;;;;;;1.00;0.80;;;21.90;74.10;;;;;;5071703;28;20411;-83
2022/07/30 07:18:03;;;;;;;1.10;0.80;;;22.00;72.90;;;;;;5073639;28;20449;-81
2022/07/30 07:20:31;;;;;;;1.70;0.90;;;22.20;72.60;;;;;;5078062;28;20460;-83
2022/07/30 07:22:58;;;;;;;1.13;0.90;;;22.40;72.10;;;;;;5077846;27;20928;-81
2022/07/30 07:25:26;;;;;;;2.33;0.90;;;22.60;69.70;;;;;;5077577;28;20403;-83
2022/07/30 07:27:52;;;;;;;1.48;0.80;;;22.70;68.20;;;;;;5077241;28;20967;-83
2022/07/30 07:30:39;;;;;;;2.05;0.93;;;22.90;66.70;;;;;;5074244;28;20464;-82
2022/07/30 07:33:07;;;;;;;1.35;0.70;;;23.10;65.00;;;;;;5076741;28;20433;-82
2022/07/30 07:35:34;;;;;;;1.80;0.80;;;23.30;64.90;;;;;;5109672;28;20411;-83
2022/07/30 07:38:16;;;;;;;1.20;0.75;;;23.40;64.60;;;;;;5068609;28;20417;-83
2022/07/30 07:40:43;;;;;;;1.55;0.80;;;23.70;64.20;;;;;;5071481;28;20406;-83
2022/07/30 07:43:10;;;;;;;1.05;0.80;;;23.90;62.90;;;;;;5074965;28;20429;-83
2022/07/30 07:45:38;;;;;;;0.70;0.70;;;24.00;62.50;;;;;;5076173;28;20407;-83
2022/07/30 07:48:05;;;;;;;1.50;0.77;;;24.30;62.80;;;;;;5076350;28;20924;-81
2022/07/30 07:50:32;;;;;;;1.70;0.90;;;24.50;62.30;;;;;;5075568;28;20433;-83
2022/07/30 07:52:59;;;;;;;1.20;0.70;;;24.70;60.50;;;;;;5073338;28;20853;-83
2022/07/30 07:55:26;;;;;;;1.27;0.77;;;24.90;60.30;;;;;;5071846;28;20906;-80
2022/07/30 07:57:53;;;;;;;1.30;1.10;;;25.10;58.50;;;;;;5072059;28;20411;-82
2022/07/30 08:00:20;;;;;;;1.73;0.90;;;25.10;58.60;;;;;;5072947;28;20410;-82
2022/07/30 08:02:47;;;;;;;2.50;1.05;;;25.20;58.70;;;;;;5073908;28;20412;-81
2022/07/30 08:05:15;;;;;;;1.08;0.95;;;25.30;59.10;;;;;;5074430;27;20422;-83
2022/07/30 08:07:43;;;;;;;1.95;1.00;;;25.30;58.70;;;;;;5075715;28;20817;-83
2022/07/30 08:10:13;;;;;;;1.60;0.70;;;25.50;58.30;;;;;;5067649;28;20499;-81
2022/07/30 08:12:41;;;;;;;1.00;0.80;;;25.60;59.30;;;;;;5076164;28;20414;-84
2022/07/30 08:15:09;;;;;;;1.40;1.08;;;25.90;59.20;;;;;;5073361;28;20418;-83
2022/07/30 08:17:40;;;;;;;1.63;0.93;;;26.00;58.50;;;;;;5074416;28;20414;-84
2022/07/30 08:20:09;;;;;;;1.55;0.80;;;26.30;57.20;;;;;;5072014;28;20414;-83
2022/07/30 08:22:36;;;;;;;1.40;0.95;;;26.40;58.00;;;;;;5074617;28;20403;-81
2022/07/30 08:25:03;;;;;;;1.30;1.00;;;26.60;57.10;;;;;;5087146;28;20433;-83
2022/07/30 08:27:30;;;;;;;0.80;0.80;;;26.90;56.30;;;;;;5076670;28;20410;-83
2022/07/30 08:30:03;;;;;;;2.10;1.00;;;27.00;55.40;;;;;;5076865;28;20403;-80
2022/07/30 08:32:30;;;;;;;1.20;1.10;;;27.10;55.30;;;;;;5075495;28;20403;-83
2022/07/30 08:34:56;;;;;;;2.60;1.10;;;27.20;55.10;;;;;;5073844;28;20414;-82
2022/07/30 08:37:23;;;;;;;1.65;0.90;;;27.30;54.20;;;;;;5073349;28;20403;-84
2022/07/30 08:39:50;;;;;;;1.65;0.90;;;27.40;54.30;;;;;;5059236;28;20407;-83
2022/07/30 08:42:18;;;;;;;2.30;1.10;;;27.50;54.20;;;;;;5076564;28;20415;-83
2022/07/30 08:44:45;;;;;;;1.90;0.95;;;27.70;54.00;;;;;;5067841;28;20453;-83
2022/07/30 08:47:16;;;;;;;1.02;0.93;;;27.80;53.50;;;;;;5071923;28;20407;-85
2022/07/30 08:49:47;;;;;;;2.10;0.90;;;27.90;53.00;;;;;;5073331;28;20395;-84
2022/07/30 08:52:15;;;;;;;1.00;0.90;;;28.00;53.60;;;;;;5073479;28;20419;-82
2022/07/30 08:54:43;;;;;;;1.70;1.00;;;28.00;53.40;;;;;;5075975;28;20437;-81
2022/07/30 08:57:10;;;;;;;1.52;0.75;;;28.20;53.50;;;;;;5105596;27;20464;-83
2022/07/30 08:59:38;;;;;;;1.42;0.90;;;28.50;53.10;;;;;;5068249;28;20691;-84
2022/07/30 09:02:25;;;;;;;2.20;0.90;;;28.80;50.90;;;;;;5072424;28;20434;-82
2022/07/30 09:04:53;;;;;;;1.70;0.93;;;28.90;51.50;;;;;;5071498;28;20438;-81
2022/07/30 09:07:20;;;;;;;1.50;1.08;;;29.00;48.30;;;;;;5100907;28;21363;-83
2022/07/30 09:09:47;;;;;;;2.42;1.08;;;29.10;48.80;;;;;;5069188;28;20492;-84
2022/07/30 09:12:39;;;;;;;1.30;1.10;;;29.20;49.40;;;;;;5070274;28;20414;-82
2022/07/30 09:15:19;;;;;;;2.00;1.00;;;29.40;48.30;;;;;;5071303;28;20767;-80
2022/07/30 09:17:50;;;;;;;1.13;1.02;;;29.40;47.20;;;;;;5076434;28;20437;-81
2022/07/30 09:20:23;;;;;;;1.38;1.00;;;29.50;47.70;;;;;;5075430;28;20407;-81
2022/07/30 09:22:53;;;;;;;0.85;0.77;;;29.70;45.20;;;;;;5072358;28;20401;-85
2022/07/30 09:25:45;;;;;;;2.60;0.80;;;29.70;45.90;;;;;;5070573;28;20411;-85
2022/07/30 09:28:14;;;;;;;1.55;0.77;;;29.90;47.20;;;;;;5062973;28;20414;-84
2022/07/30 09:30:47;;;;;;;1.03;0.77;;;30.00;46.40;;;;;;5070369;28;20383;-81
2022/07/30 09:33:29;;;;;;;0.80;0.60;;;30.10;45.30;;;;;;5069741;28;20823;-84
2022/07/30 09:35:56;;;;;;;2.40;0.65;;;30.20;43.20;;;;;;5109649;28;20411;-81
2022/07/30 09:38:23;;;;;;;1.10;0.60;;;30.30;41.80;;;;;;5075685;28;20395;-85
2022/07/30 09:40:50;;;;;;;1.10;0.63;;;30.30;42.10;;;;;;5065820;28;20407;-84
2022/07/30 09:43:23;;;;;;;0.77;0.60;;;30.40;41.10;;;;;;5067224;28;20480;-82
2022/07/30 09:45:57;;;;;;;1.20;0.60;;;30.50;41.00;;;;;;5076189;28;20748;-83
2022/07/30 09:48:26;;;;;;;0.70;0.60;;;30.50;40.50;;;;;;5065133;28;20407;-83
2022/07/30 09:50:54;;;;;;;1.10;0.60;;;30.50;41.50;;;;;;5074513;28;20399;-81
2022/07/30 09:53:23;;;;;;;1.05;0.65;;;30.50;40.50;;;;;;5071347;28;20419;-84
2022/07/30 09:55:51;;;;;;;0.50;0.50;;;30.50;41.00;;;;;;5072309;28;20495;-84
2022/07/30 09:58:19;;;;;;;1.50;0.70;;;30.50;41.20;;;;;;5078502;28;20407;-83
2022/07/30 10:00:59;;;;;;;1.60;0.57;;;30.50;40.50;;;;;;5073993;28;20407;-85
2022/07/30 10:03:26;;;;;;;0.88;0.60;;;30.60;39.10;;;;;;5070027;28;20402;-83
2022/07/30 10:06:08;;;;;;;0.80;0.50;;;30.70;39.50;;;;;;5073726;28;20398;-81
2022/07/30 10:08:41;;;;;;;0.80;0.50;;;30.80;36.00;;;;;;5073165;28;20417;-81
2022/07/30 10:11:23;;;;;;;0.50;0.47;;;31.00;36.70;;;;;;5069291;28;20402;-83
2022/07/30 10:13:54;;;;;;;1.13;0.50;;;31.10;38.20;;;;;;5072444;28;20414;-81
2022/07/30 10:16:24;;;;;;;0.40;0.30;;;31.30;37.50;;;;;;5073335;28;20420;-84
2022/07/30 10:18:51;;;;;;;0.57;0.50;;;31.40;36.80;;;;;;5074334;28;20951;-84
2022/07/30 10:21:19;;;;;;;0.90;0.50;;;31.50;37.10;;;;;;5071887;28;20428;-84
2022/07/30 10:23:46;;;;;;;0.85;0.60;;;31.60;37.70;;;;;;5075514;28;20982;-84
2022/07/30 10:26:17;;;;;;;0.65;0.57;;;31.60;35.90;;;;;;5074010;28;20426;-83
2022/07/30 10:28:45;;;;;;;0.70;0.60;;;31.60;36.20;;;;;;5067767;28;20443;-81
2022/07/30 10:31:14;;;;;;;0.70;0.50;;;31.40;37.60;;;;;;5076473;28;20480;-83
2022/07/30 10:34:01;;;;;;;0.82;0.57;;;31.50;39.20;;;;;;5104394;28;20464;-81
2022/07/30 10:36:30;;;;;;;1.63;0.60;;;31.70;39.50;;;;;;5074101;28;21116;-84
2022/07/30 10:38:59;;;;;;;1.00;0.60;;;31.90;37.30;;;;;;5107970;28;20403;-83
2022/07/30 10:41:33;;;;;;;0.70;0.47;;;32.00;36.40;;;;;;5107222;28;20882;-85
2022/07/30 10:44:37;;;;;;;0.70;0.50;;;31.90;33.30;;;;;;5076715;28;20407;-83
2022/07/30 10:47:10;;;;;;;1.05;0.60;;;31.90;35.50;;;;;;5071533;28;20498;-84
2022/07/30 10:49:37;;;;;;;1.10;0.40;;;31.90;34.80;;;;;;5071332;28;20809;-85
2022/07/30 10:52:09;;;;;;;1.88;0.40;;;31.90;33.70;;;;;;5069377;28;20429;-83
2022/07/30 10:54:46;;;;;;;0.73;0.30;;;32.00;33.60;;;;;;5078114;28;20452;-84
2022/07/30 10:57:18;;;;;;;0.93;0.30;;;32.00;32.30;;;;;;5107012;28;20918;-82
2022/07/30 11:00:03;;;;;;;0.93;0.50;;;31.90;33.20;;;;;;5111315;28;20411;-81
2022/07/30 11:02:33;;;;;;;0.90;0.40;;;32.00;34.20;;;;;;5094391;28;20393;-82
2022/07/30 11:05:16;;;;;;;0.30;0.30;;;32.40;35.00;;;;;;5068789;28;20416;-86
2022/07/30 11:07:45;;;;;;;0.60;0.40;;;32.50;33.90;;;;;;5074427;28;20481;-85
2022/07/30 11:10:36;;;;;;;0.85;0.40;;;32.60;33.40;;;;;;5075664;28;20407;-84
2022/07/30 11:13:07;;;;;;;0.38;0.30;;;32.80;30.60;;;;;;5066829;28;20890;-83
2022/07/30 11:15:52;;;;;;;1.00;0.40;;;32.70;32.50;;;;;;5071914;28;20411;-86
2022/07/30 11:18:20;;;;;;;0.80;0.40;;;32.90;33.10;;;;;;5075382;28;20398;-85
2022/07/30 11:21:19;;;;;;;1.10;0.50;;;33.00;31.50;;;;;;5076356;28;20402;-82
2022/07/30 11:23:48;;;;;;;0.80;0.45;;;33.10;31.60;;;;;;5067953;28;20484;-84
2022/07/30 11:26:40;;;;;;;1.20;0.40;;;33.00;32.00;;;;;;5076032;28;20470;-81
2022/07/30 11:29:37;;;;;;;1.15;0.40;;;33.00;33.00;;;;;;5070651;28;20813;-82
2022/07/30 11:32:30;;;;;;;1.10;0.37;;;33.10;32.80;;;;;;5066119;28;20398;-85
2022/07/30 11:35:18;;;;;;;1.00;0.40;;;33.10;32.00;;;;;;5073839;28;20418;-84
2022/07/30 11:38:06;;;;;;;0.30;0.30;;;33.00;31.20;;;;;;5076158;28;20468;-83
2022/07/30 11:40:57;;;;;;;0.60;0.40;;;32.80;31.40;;;;;;5069236;28;20415;-86
2022/07/30 11:43:24;;;;;;;0.47;0.40;;;32.90;33.60;;;;;;5078085;28;20423;-85
2022/07/30 11:46:06;;;;;;;0.98;0.30;;;33.10;31.90;;;;;;5069837;28;20493;-83
2022/07/30 11:48:39;;;;;;;0.30;0.30;;;33.20;30.40;;;;;;5070824;28;20399;-80
2022/07/30 11:51:07;;;;;;;0.40;0.30;;;33.30;31.70;;;;;;5071216;28;20898;-81
2022/07/30 11:53:35;;;;;;;0.50;0.30;;;33.30;30.70;;;;;;5108361;27;20410;-84
2022/07/30 11:56:02;;;;;;;1.58;0.30;;;33.30;30.10;;;;;;5073081;28;20403;-83
2022/07/30 11:58:36;;;;;;;0.43;0.30;;;33.40;30.60;;;;;;5075380;28;20407;-82
2022/07/30 12:01:14;;;;;;;0.50;0.30;;;33.30;29.50;;;;;;5072428;28;20469;-84
2022/07/30 12:03:43;;;;;;;0.70;0.32;;;33.20;29.50;;;;;;5079147;28;20469;-86
2022/07/30 12:06:19;;;;;;;0.70;0.40;;;33.00;30.70;;;;;;5072676;28;20426;-84
2022/07/30 12:08:48;;;;;;;0.50;0.32;;;33.20;30.20;;;;;;5072584;28;20398;-84
2022/07/30 12:11:19;;;;;;;1.17;0.30;;;33.30;31.20;;;;;;5077237;28;20457;-83
2022/07/30 12:13:58;;;;;;;1.00;0.20;;;33.70;30.00;;;;;;5070342;28;20464;-86
2022/07/30 12:16:26;;;;;;;0.40;0.30;;;33.80;29.80;;;;;;5070973;28;20449;-84
2022/07/30 12:18:54;;;;;;;0.63;0.35;;;34.00;28.80;;;;;;5082209;28;20878;-84
2022/07/30 12:21:23;;;;;;;0.70;0.40;;;33.70;28.80;;;;;;5086927;28;20407;-86
2022/07/30 12:23:55;;;;;;;0.30;0.30;;;33.60;29.50;;;;;;5072577;28;20398;-86
2022/07/30 12:26:25;;;;;;;0.70;0.30;;;33.70;30.00;;;;;;5076581;28;20415;-83
2022/07/30 12:28:53;;;;;;;0.80;0.35;;;33.80;29.70;;;;;;5072258;28;21706;-84
2022/07/30 12:31:21;;;;;;;0.85;0.40;;;33.90;29.30;;;;;;5071999;28;20418;-84
2022/07/30 12:33:48;;;;;;;0.30;0.30;;;34.10;29.60;;;;;;5070833;28;28747;-84
2022/07/30 12:36:34;;;;;;;0.45;0.35;;;34.30;29.00;;;;;;5069828;28;20426;-83
2022/07/30 12:39:03;;;;;;;2.20;0.30;;;34.40;28.30;;;;;;5076013;28;20403;-85
2022/07/30 12:41:44;;;;;;;0.75;0.40;;;34.60;28.10;;;;;;5079064;28;20471;-86
2022/07/30 12:44:33;;;;;;;0.45;0.30;;;34.60;28.50;;;;;;5106039;27;20401;-82
2022/07/30 12:47:01;;;;;;;0.20;0.20;;;34.80;28.70;;;;;;5079918;28;20790;-82
2022/07/30 12:49:31;;;;;;;1.17;0.30;;;34.90;28.00;;;;;;5076899;28;20417;-83
2022/07/30 12:52:28;;;;;;;0.90;0.30;;;34.90;28.40;;;;;;5080178;28;20457;-86
2022/07/30 12:55:04;;;;;;;0.60;0.40;;;34.80;28.00;;;;;;5067487;28;20434;-85
2022/07/30 12:57:56;;;;;;;1.13;0.40;;;34.70;28.20;;;;;;5066862;28;20416;-85
2022/07/30 13:00:28;;;;;;;0.80;0.40;;;34.70;28.20;;;;;;5087721;28;20413;-82
2022/07/30 13:02:56;;;;;;;0.80;0.40;;;34.70;28.00;;;;;;5069560;28;20398;-85
2022/07/30 13:06:10;;;;;;;0.50;0.30;;;34.90;28.10;;;;;;5088742;28;20414;-82
2022/07/30 13:08:56;;;;;;;0.32;0.32;;;35.10;28.10;;;;;;5004211;28;20462;-87
2022/07/30 13:11:38;;;;;;;0.52;0.40;;;35.00;27.50;;;;;;5007778;28;20906;-84